All
Cerrione Airport (Biella) LILE Weather
There is no TAF data available at LILE. Showing TAF data for LIMN (28 mi E).
LIMN Terminal Area Forecast (no data for LILE)
| Date | Time (CEST) | Flight Rules | Wind Dir. | Speed | Type | Height AGL (ft) | Visibility | Remarks | ||||||
|---|---|---|---|---|---|---|---|---|---|---|---|---|---|---|
There is no METAR data available at LILE. Showing METAR data for LIMN (28 mi E).
Recent LIMN METAR history (no data for LILE)
| Date | Time (CEST) | Flight Rules | Wind Dir. | Speed | Type | Height AGL (ft) | Visibility | Temp (°C) | Temp (°F) | Dew Point (°C) | Dew Point (°F) | Rel. Humid. | Pressure | Density Altitude | Remarks |
|---|---|---|---|---|---|---|---|---|---|---|---|---|---|---|---|
| 06-Sep | 12:55 | n/a | 110° | 5 kt | Missing | 30° | 86° | 16° | 60° | 43% | 1023 mb | 2,097 ft | |||
| 06-Sep | 11:55 | n/a | 80° | 4 kt | Missing | 29° | 84° | 17° | 62° | 48% | 1023 mb | 1,977 ft | |||
| 06-Sep | 10:55 | n/a | 100° | 3 kt | Missing | 28° | 82° | 17° | 62° | 51% | 1023 mb | 1,857 ft | |||
| 06-Sep | 09:55 | n/a | 10° | 5 kt | Missing | 27° | 80° | 16° | 60° | 51% | 1023 mb | 1,737 ft | |||
| 06-Sep | 08:55 | n/a | 10° | 6 kt | Missing | 25° | 77° | 16° | 60° | 57% | 1022 mb | 1,526 ft | |||
| 06-Sep | 07:55 | n/a | 20° | 4 kt | Missing | 22° | 71° | 15° | 59° | 65% | 1022 mb | 1,166 ft | |||
| 06-Sep | 06:55 | n/a | 40° | 5 kt | Missing | 22° | 71° | 15° | 59° | 65% | 1021 mb | 1,196 ft | |||
| 06-Sep | 05:55 | n/a | 50° | 9 kt | Missing | 24° | 75° | 15° | 59° | 57% | 1020 mb | 1,465 ft | |||
| 06-Sep | 04:55 | n/a | 40° | 5 kt | Missing | 21° | 69° | 14° | 57° | 64% | 1020 mb | 1,105 ft | |||
| 06-Sep | 03:55 | n/a | 10° | 6 kt | Missing | 21° | 69° | 13° | 55° | 60% | 1020 mb | 1,105 ft | |||
| 06-Sep | 02:55 | n/a | 30° | 5 kt | Missing | 20° | 68° | 14° | 57° | 68% | 1019 mb | 1,015 ft | |||
| 06-Sep | 01:55 | n/a | 350° | 4 kt | Missing | 19° | 66° | 16° | 60° | 83% | 1019 mb | 895 ft | |||
| 06-Sep | 00:55 | n/a | 290° | 3 kt | Missing | 20° | 68° | 17° | 62° | 83% | 1019 mb | 1,015 ft | |||
| 05-Sep | 23:55 | n/a | 270° | 3 kt | Missing | 20° | 68° | 18° | 64° | 88% | 1019 mb | 1,015 ft | |||
| 05-Sep | 22:55 | n/a | 360° | 4 kt | Missing | 23° | 73° | 18° | 64° | 73% | 1018 mb | 1,404 ft | |||
| 05-Sep | 21:55 | n/a | Variable | 2 kt | Missing | 23° | 73° | 19° | 66° | 78% | 1018 mb | 1,404 ft | |||
| 05-Sep | 20:55 | n/a | 10° | 3 kt | Missing | 25° | 77° | 18° | 64° | 65% | 1017 mb | 1,674 ft | |||
| 05-Sep | 19:55 | n/a | Variable | 1 kt | Missing | 28° | 82° | 19° | 66° | 58% | 1016 mb | 2,064 ft | |||
| 05-Sep | 18:55 | n/a | 310° | 2 kt | Missing | 31° | 87° | 17° | 62° | 43% | 1016 mb | 2,424 ft | |||
| 05-Sep | 17:55 | n/a | 280° | 5 kt | Missing | 31° | 87° | 18° | 64° | 46% | 1016 mb | 2,424 ft | |||
| 05-Sep | 16:55 | n/a | 280° | 4 kt | Missing | 31° | 87° | 17° | 62° | 43% | 1016 mb | 2,424 ft | |||
| 05-Sep | 15:55 | n/a | 280° | 6 kt | Missing | 31° | 87° | 17° | 62° | 43% | 1017 mb | 2,394 ft | |||
| 05-Sep | 14:55 | n/a | 280° | 5 kt | Missing | 31° | 87° | 16° | 60° | 40% | 1017 mb | 2,394 ft | |||
| 05-Sep | 13:55 | n/a | 260° | 6 kt | Missing | 30° | 86° | 16° | 60° | 43% | 1017 mb | 2,274 ft |
Login
| Your browser is unsupported. upgrade your browser |
